This is the latest recevied weather packets stored in our database for station/object EA5EN. If no packets are shown the sender has not sent any weather packets the latest 10 day(s).
| Time | Temp. | Humidity | Pressure | Rain* | Wind** | Luminosity | Snow |
|---|---|---|---|---|---|---|---|
| 1777684840 | 17.78° C | 88% | 1021.2 hPa | 0 mm | - | - | - |
| 1777681270 | 17.78° C | 89% | 1021.9 hPa | 0 mm | - | - | - |
| 1777676429 | 17.78° C | 89% | 1022.6 hPa | 0 mm | - | - | - |
| 1777668620 | 18.33° C | 85% | 1022.3 hPa | 0 mm | - | - | - |
| 1777668075 | 18.89° C | 84% | 1022.3 hPa | 0 mm | - | - | - |
| 1777667470 | 18.89° C | 83% | 1022.3 hPa | 0 mm | - | - | - |
| 1777663837 | 19.44° C | 80% | 1021.6 hPa | 0 mm | - | - | - |
| 1777663252 | 19.44° C | 80% | 1021.5 hPa | 0 mm | - | - | - |
| 1777660265 | 19.44° C | 80% | 1020.8 hPa | 0 mm | - | - | - |
| 1777658488 | 20° C | 78% | 1020.5 hPa | 0 mm | - | - | - |
| 1777645252 | 25° C | 59% | 1019.4 hPa | 0 mm | - | - | - |
| 1777639866 | 24.44° C | 61% | 1019.8 hPa | 0 mm | - | - | - |
| 1777638675 | 23.89° C | 62% | 1020 hPa | 0 mm | - | - | - |
| 1777638050 | 23.33° C | 64% | 1020.1 hPa | 0 mm | - | - | - |
| 1777635025 | 23.33° C | 64% | 1020.3 hPa | 0 mm | - | - | - |
| 1777634419 | 22.78° C | 66% | 1020.3 hPa | 0 mm | - | - | - |
| 1777632664 | 22.22° C | 68% | 1020.5 hPa | 0 mm | - | - | - |
| 1777629073 | 21.11° C | 73% | 1021 hPa | 0 mm | - | - | - |
| 1777628427 | 22.22° C | 71% | 1021 hPa | 0 mm | - | - | - |
| 1777627862 | 21.67° C | 72% | 1020.8 hPa | 0 mm | - | - | - |
| 1777618236 | 18.89° C | 86% | 1019.1 hPa | 0 mm | - | - | - |
| 1777613434 | 17.78° C | 90% | 1018.3 hPa | 0 mm | - | - | - |
| 1777612825 | 17.78° C | 90% | 1018.3 hPa | 0 mm | - | - | - |
| 1777608624 | 17.78° C | 90% | 1017.9 hPa | 0 mm | - | - | - |
| 1777606251 | 18.33° C | 90% | 1017.8 hPa | 0 mm | - | - | - |
* Rain latest hour (hover to see other rain measurements)
** Current wind speed in m/s (hover to see current wind gust speed)